Time;durP1;ratioP1;P1;durP2;ratioP2;P2;SDS_P1;SDS_P2;PMS_P1;PMS_P2;Temp;Humidity;BMP_temperature;BMP_pressure;BME280_temperature;BME280_humidity;BME280_pressure;Samples;Min_cycle;Max_cycle;Signal;HPM_P1;HPM_P2
2022/03/06 07:12:09;;;;;;;17.08;11.05;;;;;;;-3.26;74.47;101514.41;5009873;28;20056;-77
2022/03/06 07:15:17;;;;;;;14.87;10.10;;;;;;;-3.11;74.61;101517.28;4994727;28;20052;-77
2022/03/06 07:18:20;;;;;;;16.47;11.43;;;;;;;-3.01;73.79;101520.03;4993616;28;20060;-77
2022/03/06 07:21:25;;;;;;;18.17;10.80;;;;;;;-2.94;73.71;101526.97;4997939;28;20057;-77
2022/03/06 07:24:30;;;;;;;16.53;11.63;;;;;;;-2.96;73.97;101519.28;4986330;28;20177;-77
2022/03/06 07:27:36;;;;;;;19.43;11.07;;;;;;;-2.85;73.78;101527.16;5016621;28;20038;-77
2022/03/06 07:30:40;;;;;;;21.50;11.73;;;;;;;-2.79;74.00;101527.28;5002684;28;20085;-77
2022/03/06 07:33:44;;;;;;;;;;;;;;;-2.65;73.47;101533.53;5000506;28;20131;-77
2022/03/06 07:36:55;;;;;;;13.45;9.68;;;;;;;-2.69;74.02;101534.28;5009638;28;19991;-78
2022/03/06 07:39:59;;;;;;;17.35;11.70;;;;;;;-2.66;74.09;101530.91;4987253;28;20056;-77
2022/03/06 07:43:03;;;;;;;17.77;11.63;;;;;;;-2.44;73.84;101535.56;5011574;28;20516;-77
2022/03/06 07:46:07;;;;;;;18.60;12.30;;;;;;;-2.32;73.37;101524.69;5012128;28;20469;-77
2022/03/06 07:54:02;;;;;;;20.33;13.65;;;;;;;-2.08;72.90;101531.03;4989799;28;20036;-77
2022/03/06 07:57:06;;;;;;;21.17;14.63;;;;;;;-2.11;73.15;101529.28;4978616;28;20112;-78
2022/03/06 08:00:11;;;;;;;21.23;13.75;;;;;;;-2.09;73.20;101531.88;4966663;28;20120;-78
2022/03/06 08:03:15;;;;;;;22.48;13.73;;;;;;;-2.03;73.25;101534.53;4989299;28;20049;-77
2022/03/06 08:06:19;;;;;;;19.67;13.05;;;;;;;-1.90;73.23;101533.88;4990534;28;20045;-77
2022/03/06 08:09:24;;;;;;;25.52;14.43;;;;;;;-1.87;72.58;101539.06;4993782;28;20053;-78
2022/03/06 08:12:29;;;;;;;22.38;14.57;;;;;;;-1.79;73.46;101541.72;4994446;28;20136;-78
2022/03/06 08:15:34;;;;;;;18.67;13.02;;;;;;;-1.75;73.61;101544.38;5013698;28;20504;-78
2022/03/06 08:18:37;;;;;;;25.40;13.60;;;;;;;-1.69;73.61;101539.31;5015824;28;20053;-79
2022/03/06 08:21:43;;;;;;;23.00;13.27;;;;;;;-1.65;73.21;101541.09;5028568;28;20055;-83
2022/03/06 08:24:47;;;;;;;20.38;13.25;;;;;;;-1.55;73.08;101536.09;5027873;28;20043;-78
2022/03/06 08:27:51;;;;;;;20.70;13.85;;;;;;;-1.41;73.90;101539.69;5027926;28;20048;-78
2022/03/06 08:30:55;;;;;;;21.52;12.80;;;;;;;-1.31;73.50;101538.97;5013445;28;20045;-77
2022/03/06 08:33:59;;;;;;;18.48;13.43;;;;;;;-1.15;72.66;101541.72;5009008;28;20107;-77
2022/03/06 08:37:03;;;;;;;19.95;14.32;;;;;;;-1.04;72.27;101530.75;5014068;28;20100;-77
2022/03/06 08:40:10;;;;;;;18.75;13.23;;;;;;;-0.91;73.02;101528.31;5019638;28;20048;-77
2022/03/06 08:43:13;;;;;;;18.13;13.00;;;;;;;-0.76;72.27;101531.06;5057588;23;20060;-66
2022/03/06 08:46:19;;;;;;;19.65;13.57;;;;;;;-0.72;71.90;101525.94;4998058;28;20755;-67
2022/03/06 08:49:25;;;;;;;25.00;14.63;;;;;;;-0.54;71.93;101521.84;5010721;28;20037;-65
2022/03/06 08:52:28;;;;;;;20.55;14.25;;;;;;;-0.49;72.61;101522.72;4990727;28;20591;-64
2022/03/06 08:55:32;;;;;;;;;;;;;;;-0.25;72.13;101530.66;4969264;28;20046;-64
2022/03/06 08:58:35;;;;;;;19.65;13.25;;;;;;;-0.12;70.14;101525.63;4979726;28;19967;-65
2022/03/06 09:01:38;;;;;;;19.55;14.10;;;;;;;0.08;69.33;101524.03;4979832;28;20054;-65
2022/03/06 09:04:42;;;;;;;18.17;13.18;;;;;;;0.23;69.21;101519.00;4990070;28;20093;-64
2022/03/06 09:07:45;;;;;;;20.42;13.55;;;;;;;0.44;69.08;101517.41;4983262;28;20475;-65
2022/03/06 09:10:49;;;;;;;17.05;12.32;;;;;;;0.62;68.21;101520.06;4990114;28;20076;-65
2022/03/06 09:13:52;;;;;;;18.55;12.27;;;;;;;0.78;68.30;101515.84;4977787;28;20041;-64
2022/03/06 09:16:55;;;;;;;18.85;12.40;;;;;;;0.96;67.77;101515.06;4979897;28;20053;-65
2022/03/06 09:19:58;;;;;;;;;;;;;;;1.09;67.15;101514.22;4991507;28;20206;-65
2022/03/06 09:23:03;;;;;;;16.02;11.90;;;;;;;1.28;66.20;101509.97;4991013;28;19921;-65
2022/03/06 09:26:06;;;;;;;18.13;12.68;;;;;;;1.42;64.38;101511.72;4990878;28;20575;-65
2022/03/06 09:29:09;;;;;;;16.67;11.90;;;;;;;1.61;63.72;101508.28;4990992;28;20129;-65
2022/03/06 09:32:13;;;;;;;;;;;;;;;1.73;62.87;101507.44;4992017;28;20093;-65
2022/03/06 09:35:17;;;;;;;16.52;10.75;;;;;;;1.81;62.27;101510.84;4976182;28;19929;-65
2022/03/06 09:38:19;;;;;;;16.35;11.32;;;;;;;1.88;62.52;101502.25;4987561;28;20053;-65
2022/03/06 09:41:26;;;;;;;15.82;10.70;;;;;;;2.01;61.61;101509.13;4990542;28;20061;-65
2022/03/06 09:44:31;;;;;;;15.07;10.63;;;;;;;2.13;60.59;101512.53;4990284;28;20050;-65
2022/03/06 09:47:36;;;;;;;14.07;10.57;;;;;;;2.22;59.23;101507.38;4990686;28;20042;-65
2022/03/06 09:50:40;;;;;;;15.93;11.93;;;;;;;2.23;59.44;101504.78;4981076;28;20119;-66
2022/03/06 09:53:43;;;;;;;15.77;11.43;;;;;;;2.32;59.68;101509.91;4990823;28;20108;-65
2022/03/06 09:56:46;;;;;;;15.75;11.60;;;;;;;2.47;58.75;101508.19;4978786;28;20104;-65
2022/03/06 09:59:50;;;;;;;15.77;11.40;;;;;;;2.57;58.41;101499.53;4978606;28;20720;-65
2022/03/06 10:02:59;;;;;;;15.43;11.43;;;;;;;2.75;58.15;101504.63;4990286;28;20559;-65
2022/03/06 10:06:07;;;;;;;15.20;11.07;;;;;;;2.84;58.09;101498.56;4971369;28;20104;-65
2022/03/06 10:09:11;;;;;;;16.17;10.93;;;;;;;2.98;57.81;101503.66;4985813;28;20471;-65
2022/03/06 10:12:20;;;;;;;15.70;11.05;;;;;;;3.09;56.17;101498.41;4990037;28;20044;-65
2022/03/06 10:15:24;;;;;;;13.05;10.32;;;;;;;3.22;55.49;101495.78;4990139;28;20181;-65
2022/03/06 10:18:33;;;;;;;13.82;9.43;;;;;;;3.36;54.84;101495.66;4989608;28;20053;-63
2022/03/06 10:21:39;;;;;;;13.05;9.60;;;;;;;3.41;54.68;101499.06;4989944;28;20128;-64
2022/03/06 10:24:49;;;;;;;14.65;10.25;;;;;;;3.40;53.73;101497.34;4989848;28;20069;-65
2022/03/06 10:27:54;;;;;;;14.05;10.10;;;;;;;3.52;54.02;101487.81;4977470;28;20041;-64
2022/03/06 10:31:04;;;;;;;13.38;9.45;;;;;;;3.67;52.31;101485.06;4989155;28;20170;-64
2022/03/06 10:34:09;;;;;;;14.60;9.38;;;;;;;3.85;51.70;101481.47;4989559;28;20049;-65
2022/03/06 10:37:13;;;;;;;10.90;9.48;;;;;;;3.90;50.22;101484.88;4989371;28;20057;-64
2022/03/06 10:40:31;;;;;;;13.10;9.05;;;;;;;3.92;51.42;101470.19;4978138;28;20057;-64
2022/03/06 10:43:35;;;;;;;13.30;8.50;;;;;;;4.16;48.49;101466.50;4988697;28;20583;-64
2022/03/06 10:46:39;;;;;;;12.85;8.75;;;;;;;4.17;46.95;101469.06;4989765;28;20593;-64
2022/03/06 10:49:58;;;;;;;12.48;8.13;;;;;;;4.14;47.18;101463.91;4989962;28;20192;-65
2022/03/06 10:53:15;;;;;;;12.15;8.35;;;;;;;4.28;46.81;101463.78;4977245;28;20036;-65
2022/03/06 10:56:20;;;;;;;10.52;7.53;;;;;;;4.27;45.94;101459.47;4989479;28;20483;-64
2022/03/06 10:59:26;;;;;;;11.85;8.02;;;;;;;4.37;46.90;101463.69;4984466;28;20118;-64
2022/03/06 11:02:30;;;;;;;10.18;7.63;;;;;;;4.53;43.59;101466.06;4987653;28;20418;-64
2022/03/06 11:05:34;;;;;;;8.10;6.20;;;;;;;4.54;42.33;101470.41;4988660;28;20510;-64
2022/03/06 11:08:39;;;;;;;10.70;7.50;;;;;;;4.34;42.48;101468.91;4989131;28;20173;-64
2022/03/06 11:11:45;;;;;;;9.20;7.38;;;;;;;4.30;43.74;101466.34;4966588;28;20048;-65
2022/03/06 11:14:49;;;;;;;10.85;7.55;;;;;;;4.24;43.26;101469.84;4976759;28;20069;-65
2022/03/06 11:17:53;;;;;;;8.93;7.25;;;;;;;4.15;43.32;101469.97;4989204;28;20045;-65
2022/03/06 11:21:01;;;;;;;9.32;7.45;;;;;;;4.08;43.68;101460.53;4988857;28;20112;-64
2022/03/06 11:24:26;;;;;;;10.07;7.20;;;;;;;3.94;46.05;101458.09;4988633;28;20053;-64
2022/03/06 11:27:44;;;;;;;12.30;8.20;;;;;;;4.07;44.29;101459.69;4989029;28;20042;-64
2022/03/06 11:30:48;;;;;;;9.52;7.35;;;;;;;4.23;43.71;101455.19;4976450;28;20046;-65
2022/03/06 11:33:57;;;;;;;13.70;7.47;;;;;;;4.46;42.93;101449.75;4989212;28;20112;-65
2022/03/06 11:37:12;;;;;;;9.73;7.63;;;;;;;4.60;40.44;101432.31;4987735;28;20057;-65
2022/03/06 11:40:45;;;;;;;11.27;7.00;;;;;;;4.61;39.93;101433.16;4988710;28;20085;-66
2022/03/06 11:43:53;;;;;;;8.38;6.75;;;;;;;4.47;40.05;101432.47;4972353;28;20070;-64
2022/03/06 11:46:57;;;;;;;8.20;6.75;;;;;;;4.74;41.13;101434.72;4989934;28;20097;-64
2022/03/06 11:50:00;;;;;;;8.65;6.18;;;;;;;4.83;39.55;101424.22;4989898;28;20085;-64
2022/03/06 11:53:40;;;;;;;9.25;6.13;;;;;;;4.92;40.65;101419.81;4992078;28;20053;-64
2022/03/06 11:56:46;;;;;;;8.77;6.70;;;;;;;5.06;39.44;101426.47;4992084;28;20197;-64
2022/03/06 11:59:50;;;;;;;8.68;7.03;;;;;;;5.17;39.52;101413.38;4980221;28;20558;-64
2022/03/06 12:02:59;;;;;;;11.50;7.35;;;;;;;5.29;39.31;101410.56;4992086;28;20092;-64
2022/03/06 12:06:14;;;;;;;8.80;6.47;;;;;;;5.49;40.43;101419.78;4992095;28;20049;-65
2022/03/06 12:09:19;;;;;;;8.02;6.32;;;;;;;5.62;38.96;101410.88;4992062;28;20411;-65
2022/03/06 12:12:22;;;;;;;8.77;6.55;;;;;;;5.65;38.42;101395.28;4992244;28;20073;-65
2022/03/06 12:15:27;;;;;;;;;;;;;;;5.72;38.30;101396.88;4992323;28;20045;-66
2022/03/06 12:18:31;;;;;;;10.40;6.35;;;;;;;6.00;38.14;101396.38;4995382;28;20291;-64
2022/03/06 12:21:37;;;;;;;7.65;6.18;;;;;;;6.12;38.45;101390.94;4972433;28;20053;-64
2022/03/06 12:24:42;;;;;;;8.90;6.35;;;;;;;6.15;36.41;101396.06;4995335;28;20053;-64
2022/03/06 12:28:01;;;;;;;9.23;6.82;;;;;;;6.50;36.36;101384.94;4995376;28;20126;-65
2022/03/06 12:31:31;;;;;;;9.98;7.93;;;;;;;6.78;35.96;101373.09;4995679;28;20073;-64
2022/03/06 12:34:36;;;;;;;7.80;6.55;;;;;;;6.70;36.80;101381.91;4983496;28;20044;-64
2022/03/06 12:37:43;;;;;;;10.48;6.55;;;;;;;6.50;36.35;101382.34;4995332;28;20100;-64
2022/03/06 12:40:47;;;;;;;8.13;6.30;;;;;;;6.52;36.58;101375.38;4995136;28;20060;-64
2022/03/06 12:43:57;;;;;;;;;;;;;;;7.05;36.50;101369.84;4995677;28;20104;-64
2022/03/06 12:47:01;;;;;;;9.30;7.03;;;;;;;7.26;34.95;101367.59;4995220;28;19921;-64
2022/03/06 12:50:08;;;;;;;8.88;6.32;;;;;;;7.55;34.31;101370.31;4995187;28;20133;-63
2022/03/06 12:53:16;;;;;;;7.85;5.88;;;;;;;7.73;34.37;101368.13;4982940;28;20049;-64
2022/03/06 12:56:39;;;;;;;8.25;6.60;;;;;;;8.04;33.59;101363.78;4994771;28;20053;-64
2022/03/06 12:59:46;;;;;;;7.60;6.10;;;;;;;8.21;33.52;101362.44;4994884;28;20097;-64
2022/03/06 13:02:51;;;;;;;8.32;6.07;;;;;;;8.85;32.46;101355.28;4994989;28;20080;-64
2022/03/06 13:05:54;;;;;;;8.18;6.35;;;;;;;9.37;32.49;101356.19;4994667;28;20168;-64
2022/03/06 13:08:57;;;;;;;;;;;;;;;9.75;30.29;101349.63;4994877;28;20042;-64
2022/03/06 13:12:04;;;;;;;7.78;5.60;;;;;;;10.56;30.43;101344.91;4994724;28;19920;-64
2022/03/06 13:15:13;;;;;;;10.57;6.50;;;;;;;10.76;28.74;101329.31;4994775;28;20511;-64
2022/03/06 13:18:20;;;;;;;8.13;6.20;;;;;;;11.05;28.62;101332.50;4994364;28;20104;-64
2022/03/06 13:21:24;;;;;;;7.80;5.60;;;;;;;9.27;31.17;101346.97;4994234;28;20045;-64
2022/03/06 13:24:27;;;;;;;7.72;6.25;;;;;;;13.67;25.68;101326.38;4994500;28;20042;-65
2022/03/06 13:27:36;;;;;;;7.32;6.50;;;;;;;11.94;27.65;101331.31;4993746;28;20454;-65
2022/03/06 13:30:39;;;;;;;7.45;6.28;;;;;;;14.88;22.70;101319.72;4982238;28;20058;-65
2022/03/06 13:33:43;;;;;;;7.53;5.78;;;;;;;17.14;21.17;101314.50;4982078;28;20519;-65
2022/03/06 13:36:47;;;;;;;6.78;5.78;;;;;;;19.15;18.41;101312.56;4982033;28;20049;-65
2022/03/06 13:39:53;;;;;;;7.45;6.53;;;;;;;21.30;15.97;101302.31;4981885;28;20065;-65
2022/03/06 13:42:58;;;;;;;7.95;5.28;;;;;;;18.53;18.26;101308.31;4994018;28;20052;-65
2022/03/06 13:46:02;;;;;;;6.07;5.47;;;;;;;19.55;17.71;101305.03;4982151;28;20049;-65
2022/03/06 13:49:13;;;;;;;6.80;6.10;;;;;;;21.20;15.93;101297.94;4994167;28;20088;-65
2022/03/06 13:52:16;;;;;;;5.68;5.07;;;;;;;21.08;16.17;101300.63;4981543;28;20096;-65
2022/03/06 13:55:21;;;;;;;5.50;4.90;;;;;;;21.15;15.62;101306.28;4992803;28;20081;-66
2022/03/06 13:58:37;;;;;;;6.55;5.63;;;;;;;18.61;17.80;101303.31;4981735;28;20144;-65
2022/03/06 14:01:40;;;;;;;8.13;5.70;;;;;;;20.00;16.30;101304.22;4994038;28;20133;-65
2022/03/06 14:04:48;;;;;;;6.05;5.45;;;;;;;18.95;17.50;101303.44;4981337;28;20077;-65
2022/03/06 14:07:52;;;;;;;6.65;5.32;;;;;;;13.44;22.92;101317.06;4981323;28;20514;-65
2022/03/06 14:11:00;;;;;;;6.60;5.43;;;;;;;15.17;21.04;101325.09;4981466;28;20049;-65
2022/03/06 14:14:05;;;;;;;6.15;5.22;;;;;;;16.19;19.99;101317.16;4993723;28;20057;-64
2022/03/06 14:17:12;;;;;;;6.47;5.18;;;;;;;15.19;21.10;101310.06;4981239;28;20084;-65
2022/03/06 14:20:15;;;;;;;6.25;4.72;;;;;;;12.70;24.12;101325.09;4993456;28;20073;-64
2022/03/06 14:23:39;;;;;;;7.68;6.05;;;;;;;12.69;24.92;101319.91;4992362;28;20077;-66
2022/03/06 14:26:50;;;;;;;7.13;5.45;;;;;;;13.32;23.54;101309.81;4981464;28;20096;-65
2022/03/06 14:29:54;;;;;;;7.18;5.93;;;;;;;10.98;26.13;101310.97;4993085;28;20049;-65
2022/03/06 14:32:57;;;;;;;6.15;5.47;;;;;;;11.28;26.22;101307.97;4993152;28;20061;-65
2022/03/06 14:36:00;;;;;;;6.85;5.78;;;;;;;12.98;24.56;101302.75;4992292;28;20454;-65
2022/03/06 14:39:05;;;;;;;6.80;5.00;;;;;;;13.78;23.68;101301.28;4980074;28;20061;-65
2022/03/06 14:42:08;;;;;;;21.58;5.47;;;;;;;13.34;24.31;101299.22;4993266;28;20077;-65
2022/03/06 14:45:12;;;;;;;6.78;5.10;;;;;;;13.53;24.59;101305.22;4980438;28;20109;-65
2022/03/06 14:48:15;;;;;;;8.85;5.43;;;;;;;11.09;26.76;101308.72;4992245;28;20049;-65
2022/03/06 14:51:19;;;;;;;;;;;;;;;12.03;25.84;101312.56;4981276;28;20167;-65
2022/03/06 14:54:23;;;;;;;7.50;6.18;;;;;;;12.32;25.35;101305.94;4992838;28;19936;-65
2022/03/06 14:57:31;;;;;;;6.80;5.50;;;;;;;12.67;25.27;101304.25;4992955;28;20404;-65
2022/03/06 15:00:36;;;;;;;6.50;5.40;;;;;;;13.01;24.96;101308.69;4992552;28;20522;-65
2022/03/06 15:03:40;;;;;;;7.00;5.50;;;;;;;12.45;25.35;101307.06;4988109;28;20320;-65
2022/03/06 15:06:43;;;;;;;7.45;5.82;;;;;;;12.15;25.64;101303.25;4977680;28;20120;-65
2022/03/06 15:09:47;;;;;;;6.68;5.70;;;;;;;11.96;25.15;101300.63;4990239;28;20100;-65
2022/03/06 15:12:50;;;;;;;8.15;6.05;;;;;;;10.34;27.58;101303.94;4990453;28;20104;-65
2022/03/06 15:15:54;;;;;;;7.80;5.47;;;;;;;9.40;28.85;101311.69;4989127;28;20196;-65
2022/03/06 15:18:58;;;;;;;9.23;6.63;;;;;;;11.01;27.06;101308.22;4974776;28;20105;-65
2022/03/06 15:22:01;;;;;;;7.45;6.65;;;;;;;14.13;23.72;101305.47;4986888;28;20108;-66
2022/03/06 15:25:05;;;;;;;8.60;7.32;;;;;;;15.80;21.37;101297.63;4987892;28;20092;-66
2022/03/06 15:28:10;;;;;;;8.40;7.50;;;;;;;16.50;20.19;101301.06;4987874;28;20038;-66
2022/03/06 15:31:16;;;;;;;8.15;6.97;;;;;;;17.41;19.38;101298.53;4989680;28;20057;-66
2022/03/06 15:34:19;;;;;;;8.18;7.10;;;;;;;15.88;20.72;101300.63;4987097;28;20061;-66
2022/03/06 15:37:23;;;;;;;8.25;6.72;;;;;;;16.98;20.04;101292.69;4986491;28;20045;-66
2022/03/06 15:40:26;;;;;;;8.65;6.82;;;;;;;17.26;19.71;101285.53;4986022;28;20053;-66
2022/03/06 15:43:31;;;;;;;8.77;7.40;;;;;;;15.08;21.76;101294.03;4987779;28;20065;-67
2022/03/06 15:46:35;;;;;;;7.63;6.82;;;;;;;14.19;23.51;101297.25;4988141;28;20085;-66
2022/03/06 15:49:38;;;;;;;8.85;7.97;;;;;;;11.21;25.71;101306.53;4987430;28;20101;-66
2022/03/06 15:52:42;;;;;;;10.10;8.88;;;;;;;10.85;26.89;101300.16;4992071;28;20056;-65
2022/03/06 15:55:46;;;;;;;8.70;7.80;;;;;;;10.25;27.76;101304.25;5001807;28;20049;-65
2022/03/06 15:58:50;;;;;;;9.90;8.90;;;;;;;10.17;28.23;101307.16;5000617;28;20092;-65
2022/03/06 16:01:53;;;;;;;10.73;8.80;;;;;;;8.91;29.74;101310.75;4996209;28;20404;-65
2022/03/06 16:04:56;;;;;;;10.27;9.35;;;;;;;8.76;30.19;101308.66;4996098;28;20068;-65
2022/03/06 16:08:01;;;;;;;9.95;8.95;;;;;;;8.72;30.53;101313.09;5009107;28;20041;-64
2022/03/06 16:11:05;;;;;;;10.13;9.13;;;;;;;8.52;30.76;101308.53;5009498;28;20537;-64
2022/03/06 16:14:08;;;;;;;12.07;9.18;;;;;;;8.23;31.86;101304.19;5011229;28;20056;-65
2022/03/06 16:17:11;;;;;;;10.77;9.70;;;;;;;7.34;32.97;101304.09;4995629;28;20057;-65
2022/03/06 16:20:15;;;;;;;11.73;10.45;;;;;;;7.08;33.66;101303.88;4980838;28;20129;-64
2022/03/06 16:23:18;;;;;;;;;;;;;;;6.94;34.48;101305.09;4969882;28;20057;-64
2022/03/06 16:26:22;;;;;;;10.40;8.73;;;;;;;7.09;34.47;101310.81;4992895;28;19920;-64
2022/03/06 16:29:26;;;;;;;14.63;9.75;;;;;;;7.03;34.30;101310.97;4992659;28;20048;-64
2022/03/06 16:32:29;;;;;;;12.23;9.98;;;;;;;6.71;35.24;101304.81;4992605;28;20061;-64
2022/03/06 16:35:32;;;;;;;;;;;;;;;6.30;35.74;101316.97;4992566;28;20085;-64
2022/03/06 16:38:37;;;;;;;10.07;9.07;;;;;;;6.16;36.46;101314.69;4980069;28;19947;-64
2022/03/06 16:41:40;;;;;;;10.55;9.45;;;;;;;6.15;37.19;101315.56;4991952;28;20479;-64
2022/03/06 16:44:56;;;;;;;;;;;;;;;6.14;36.91;101311.25;4968258;28;20103;-70
2022/03/06 16:48:01;;;;;;;10.00;8.20;;;;;;;6.17;37.42;101310.34;4986877;28;19925;-65
2022/03/06 16:51:04;;;;;;;9.77;8.32;;;;;;;6.09;37.51;101313.09;4984031;28;20386;-65
2022/03/06 16:54:07;;;;;;;14.15;10.15;;;;;;;6.04;37.80;101313.19;4983010;28;20081;-64
2022/03/06 16:57:12;;;;;;;;;;;;;;;5.83;38.31;101316.19;4968781;28;20128;-63
2022/03/06 17:00:15;;;;;;;14.77;11.98;;;;;;;5.86;38.95;101323.06;4961866;28;20018;-66
2022/03/06 17:03:19;;;;;;;17.67;12.88;;;;;;;5.68;39.28;101322.56;4964364;28;20049;-66
2022/03/06 17:06:23;;;;;;;;;;;;;;;5.68;39.36;101322.56;4967613;28;20089;-66
2022/03/06 17:09:26;;;;;;;11.27;8.57;;;;;;;5.53;39.18;101330.63;4989335;28;20022;-65
2022/03/06 17:12:29;;;;;;;;;;;;;;;5.27;39.34;101336.28;4989890;28;20138;-65
2022/03/06 17:15:33;;;;;;;9.02;7.68;;;;;;;5.12;39.98;101337.38;4989458;28;20420;-65
2022/03/06 17:19:05;;;;;;;10.65;7.78;;;;;;;5.06;40.51;101347.88;4990877;28;20570;-66
2022/03/06 17:22:09;;;;;;;9.23;7.15;;;;;;;5.12;41.22;101345.16;4988587;28;20053;-66
2022/03/06 17:25:12;;;;;;;7.78;6.63;;;;;;;5.10;41.97;101352.97;4630220;28;10000191;-65
2022/03/06 17:28:18;;;;;;;10.95;7.32;;;;;;;4.94;41.78;101358.41;4988543;28;20037;-65
2022/03/06 17:31:21;;;;;;;9.45;7.57;;;;;;;4.88;42.60;101359.38;4985361;28;20056;-65
2022/03/06 17:34:25;;;;;;;8.23;6.55;;;;;;;4.77;42.86;101369.06;4634755;28;10000584;-67
2022/03/06 17:37:28;;;;;;;7.13;6.05;;;;;;;4.74;42.88;101375.13;4988929;28;20104;-65
2022/03/06 17:40:31;;;;;;;;;;;;;;;4.60;43.95;101380.50;4990402;28;20534;-66
2022/03/06 17:43:36;;;;;;;10.77;6.97;;;;;;;4.42;44.18;101384.19;4980259;28;19948;-66
2022/03/06 17:46:40;;;;;;;11.90;8.40;;;;;;;4.29;45.72;101390.41;4990611;28;20056;-64
2022/03/06 17:49:43;;;;;;;10.93;8.27;;;;;;;4.01;46.12;101404.56;4960477;28;20053;-64
2022/03/06 17:52:47;;;;;;;;;;;;;;;3.95;45.62;101408.06;4994608;28;20053;-64
2022/03/06 17:55:50;;;;;;;10.98;8.93;;;;;;;4.02;45.32;101406.25;4999934;28;19920;-64
2022/03/06 17:58:55;;;;;;;10.27;8.15;;;;;;;3.68;45.79;101415.22;4998443;28;20069;-65
2022/03/06 18:01:59;;;;;;;8.82;7.75;;;;;;;3.79;45.64;101415.13;5013210;28;20096;-64
2022/03/06 18:05:02;;;;;;;11.65;9.10;;;;;;;3.54;48.07;101421.41;4962076;28;20109;-64
2022/03/06 18:08:06;;;;;;;11.18;7.55;;;;;;;3.46;46.83;101424.91;4973642;28;20065;-64
2022/03/06 18:11:09;;;;;;;;;;;;;;;3.52;46.99;101431.78;4974526;28;20104;-64
2022/03/06 18:14:13;;;;;;;11.95;7.72;;;;;;;3.59;46.66;101429.97;4962207;28;19969;-64
2022/03/06 18:17:16;;;;;;;11.15;7.50;;;;;;;3.46;46.66;101432.66;4973945;28;20053;-65
2022/03/06 18:20:20;;;;;;;9.00;6.60;;;;;;;3.45;45.72;101430.97;4974092;28;20093;-65
2022/03/06 18:23:23;;;;;;;10.82;6.75;;;;;;;3.31;46.37;101429.34;4974080;28;20104;-65
2022/03/06 18:26:28;;;;;;;8.65;6.93;;;;;;;3.41;46.18;101434.41;4973761;28;20093;-65
2022/03/06 18:29:32;;;;;;;10.02;7.20;;;;;;;3.59;45.98;101432.56;4973551;28;20057;-65
2022/03/06 18:32:37;;;;;;;12.05;7.47;;;;;;;3.63;45.97;101434.25;4973728;28;20116;-65
2022/03/06 18:35:41;;;;;;;9.82;7.45;;;;;;;3.47;46.60;101434.38;4973084;28;20058;-65
2022/03/06 18:38:46;;;;;;;10.15;7.63;;;;;;;3.40;46.92;101440.47;4973185;28;20085;-65
2022/03/06 18:41:49;;;;;;;11.73;9.02;;;;;;;3.42;47.16;101446.50;4973035;28;20096;-65
2022/03/06 18:44:52;;;;;;;13.90;9.75;;;;;;;3.38;47.52;101452.56;4972877;28;20066;-65
2022/03/06 18:47:56;;;;;;;11.52;8.18;;;;;;;3.25;47.49;101446.63;4972713;28;20096;-65
2022/03/06 18:50:59;;;;;;;9.95;7.65;;;;;;;3.09;47.61;101451.91;4972197;28;20069;-65
2022/03/06 18:54:02;;;;;;;10.73;7.78;;;;;;;2.99;47.40;101454.53;4972138;28;20454;-65
2022/03/06 18:57:06;;;;;;;;;;;;;;;3.09;47.43;101462.25;4983496;28;20052;-65
2022/03/06 19:00:10;;;;;;;16.02;11.77;;;;;;;3.23;48.08;101455.28;4997483;28;19924;-65
2022/03/06 19:03:13;;;;;;;20.67;13.13;;;;;;;3.28;48.61;101458.66;4991977;28;20037;-65
2022/03/06 19:06:17;;;;;;;26.08;17.33;;;;;;;3.11;48.83;101470.84;4992373;28;20089;-65
2022/03/06 19:09:22;;;;;;;17.00;12.32;;;;;;;3.06;51.19;101468.28;4992140;28;20036;-65
2022/03/06 19:12:25;;;;;;;16.08;12.35;;;;;;;2.96;52.08;101482.97;4992863;28;20104;-65
2022/03/06 19:15:30;;;;;;;16.42;12.23;;;;;;;3.08;50.23;101484.63;4991682;28;20089;-65
2022/03/06 19:18:34;;;;;;;19.15;13.40;;;;;;;3.24;49.89;101488.00;4992397;28;20184;-65
2022/03/06 19:21:38;;;;;;;13.82;10.70;;;;;;;3.26;51.76;101483.69;4992884;28;20053;-65
2022/03/06 19:24:41;;;;;;;17.38;13.15;;;;;;;3.10;51.15;101489.81;4991920;28;20545;-65
2022/03/06 19:27:45;;;;;;;;;;;;;;;3.16;50.87;101500.97;4981086;28;20045;-65
2022/03/06 19:30:49;;;;;;;15.30;11.63;;;;;;;3.13;51.09;101494.97;4992652;28;19960;-65
2022/03/06 19:33:52;;;;;;;14.32;12.20;;;;;;;3.28;51.76;101497.44;4980506;28;20459;-65
2022/03/06 19:36:57;;;;;;;51.60;28.55;;;;;;;3.29;51.48;101496.59;4963336;28;20045;-65
2022/03/06 19:40:01;;;;;;;39.92;24.45;;;;;;;3.23;51.92;101506.97;4992131;28;20073;-65
2022/03/06 19:43:04;;;;;;;24.75;17.63;;;;;;;3.21;51.91;101499.19;4992175;28;20049;-65
2022/03/06 19:46:07;;;;;;;;;;;;;;;3.33;51.65;101500.84;4992806;28;20092;-65
2022/03/06 19:49:12;;;;;;;57.70;34.35;;;;;;;3.41;51.51;101501.66;4992273;28;19959;-65
2022/03/06 19:52:16;;;;;;;25.00;17.10;;;;;;;3.39;52.38;101498.22;4992212;28;20044;-65
2022/03/06 19:55:19;;;;;;;;;;;;;;;3.27;51.58;101498.31;4991666;28;20713;-65
2022/03/06 19:58:22;;;;;;;21.05;15.10;;;;;;;3.36;49.24;101499.97;4992104;28;19964;-65
2022/03/06 20:01:26;;;;;;;17.60;12.95;;;;;;;3.48;50.94;101507.66;4980377;28;20459;-65
2022/03/06 20:04:32;;;;;;;20.33;15.52;;;;;;;3.58;50.20;101508.44;4992331;28;20758;-65
2022/03/06 20:07:41;;;;;;;16.23;11.60;;;;;;;3.49;49.31;101514.53;4980284;28;20101;-65
2022/03/06 20:10:48;;;;;;;15.35;11.98;;;;;;;3.27;48.35;101521.56;4992180;28;20045;-65
2022/03/06 20:13:51;;;;;;;14.07;10.20;;;;;;;3.52;47.03;101519.69;4980027;28;20050;-65
2022/03/06 20:16:55;;;;;;;;;;;;;;;3.62;47.46;101528.22;4972939;28;20134;-65
2022/03/06 20:19:59;;;;;;;11.82;8.93;;;;;;;3.48;47.04;101534.38;4972519;28;19925;-65
2022/03/06 20:23:02;;;;;;;;;;;;;;;3.64;46.61;101529.94;4972956;28;20046;-65
2022/03/06 20:26:06;;;;;;;10.77;8.10;;;;;;;3.66;47.04;101535.09;4959014;28;20331;-65
2022/03/06 20:29:09;;;;;;;10.13;8.05;;;;;;;3.63;46.76;101540.28;4948085;28;20109;-65
2022/03/06 20:32:15;;;;;;;10.10;8.02;;;;;;;3.63;46.88;101543.72;4960702;28;20053;-65
2022/03/06 20:35:18;;;;;;;10.00;7.63;;;;;;;3.63;47.13;101546.31;4972222;28;20069;-65
2022/03/06 20:38:21;;;;;;;8.10;7.00;;;;;;;3.35;47.71;101550.84;4994447;28;20076;-65
2022/03/06 20:41:24;;;;;;;10.90;7.32;;;;;;;3.50;47.61;101552.44;4995216;28;20607;-65
2022/03/06 20:44:28;;;;;;;10.85;7.70;;;;;;;3.57;47.55;101554.09;4995184;28;20148;-65
2022/03/06 20:47:31;;;;;;;10.55;7.45;;;;;;;3.63;47.77;101555.81;4972055;28;20530;-65
2022/03/06 20:50:35;;;;;;;;;;;;;;;3.65;47.63;101567.00;4995469;28;20049;-65
2022/03/06 20:53:38;;;;;;;9.57;6.53;;;;;;;3.74;47.62;101556.59;4995159;28;20405;-65
2022/03/06 20:56:42;;;;;;;13.30;6.38;;;;;;;3.57;47.79;101563.59;4995068;28;20092;-65
2022/03/06 20:59:45;;;;;;;9.38;6.15;;;;;;;3.39;48.12;101574.94;4995163;28;20064;-65
2022/03/06 21:02:48;;;;;;;;;;;;;;;3.32;48.45;101573.22;4995330;28;20509;-65
2022/03/06 21:05:52;;;;;;;9.80;5.97;;;;;;;3.26;48.27;101575.00;4995279;28;19956;-65
2022/03/06 21:08:55;;;;;;;7.82;5.88;;;;;;;3.15;48.63;101594.00;4975289;28;20042;-65
2022/03/06 21:11:58;;;;;;;8.75;6.93;;;;;;;3.26;48.40;101589.66;4975334;28;20519;-65
2022/03/06 21:15:02;;;;;;;;;;;;;;;3.21;47.97;101586.22;4975720;28;20419;-65
2022/03/06 21:18:05;;;;;;;8.45;6.13;;;;;;;3.23;47.83;101589.66;4975227;28;19975;-65
2022/03/06 21:21:09;;;;;;;10.02;6.65;;;;;;;2.89;47.99;101584.63;4975383;28;20052;-65
2022/03/06 21:24:12;;;;;;;;;;;;;;;3.14;47.94;101584.53;4975142;28;20042;-65
2022/03/06 21:27:17;;;;;;;12.07;5.63;;;;;;;3.19;47.24;101587.94;4975363;28;19968;-65
2022/03/06 21:30:20;;;;;;;10.10;5.28;;;;;;;2.96;46.78;101586.31;4974979;28;20049;-65
2022/03/06 21:33:23;;;;;;;8.45;5.60;;;;;;;2.97;47.35;101584.63;4975181;28;20050;-65
2022/03/06 21:36:27;;;;;;;9.02;5.70;;;;;;;2.83;46.98;101597.56;4982659;28;20046;-65
2022/03/06 21:39:31;;;;;;;6.78;4.82;;;;;;;3.03;47.26;101588.03;4994194;28;20547;-65
2022/03/06 21:42:34;;;;;;;;;;;;;;;2.74;46.54;101585.56;4995095;28;20055;-65
2022/03/06 21:45:37;;;;;;;7.75;4.75;;;;;;;2.95;46.73;101591.50;4994068;28;19924;-65